createdAt,value
2022-10-18T00:01:28.633Z,91.29
2022-10-18T00:07:48.574Z,91.22
2022-10-18T00:14:11.869Z,91.37
2022-10-18T00:20:31.562Z,91.42
2022-10-18T00:26:54.567Z,91.45
2022-10-18T00:33:14.670Z,91.36
2022-10-18T00:39:37.565Z,91.64
2022-10-18T00:45:57.611Z,91.61
2022-10-18T00:52:20.628Z,91.55
2022-10-18T00:58:40.586Z,91.61
2022-10-18T01:05:03.576Z,91.73
2022-10-18T01:11:23.582Z,91.8
2022-10-18T01:17:46.588Z,91.68
2022-10-18T01:24:06.566Z,91.9
2022-10-18T01:30:29.836Z,91.94
2022-10-18T01:36:49.617Z,91.93
2022-10-18T01:43:12.584Z,91.89
2022-10-18T01:49:32.698Z,91.79
2022-10-18T01:55:55.575Z,91.95
2022-10-18T02:02:15.583Z,91.96
2022-10-18T02:08:38.602Z,91.96
2022-10-18T02:14:58.660Z,92.13
2022-10-18T02:21:21.619Z,92.08
2022-10-18T02:27:41.598Z,92.15
2022-10-18T02:34:04.592Z,92.19
2022-10-18T02:40:24.586Z,92.08
2022-10-18T02:46:47.614Z,92.15
2022-10-18T02:53:07.562Z,92.14
2022-10-18T02:59:30.632Z,91.93
2022-10-18T03:05:50.592Z,92.15
2022-10-18T03:12:13.566Z,92.15
2022-10-18T03:18:33.612Z,92.26
2022-10-18T03:24:56.623Z,92.2
2022-10-18T03:41:58.516Z,92.16
2022-10-18T03:48:21.572Z,92.09
2022-10-18T03:54:41.585Z,91.94
2022-10-18T04:01:04.594Z,92.15
2022-10-18T04:07:24.596Z,92.17
2022-10-18T04:13:47.612Z,92.03
2022-10-18T04:20:07.589Z,91.92
2022-10-18T04:26:30.639Z,91.84
2022-10-18T04:32:50.602Z,91.81
2022-10-18T04:39:13.612Z,91.83
2022-10-18T04:45:33.584Z,91.56
2022-10-18T04:51:56.556Z,91.58
2022-10-18T04:58:16.612Z,91.82
2022-10-18T05:04:39.599Z,92.11
2022-10-18T05:10:59.584Z,92.07
2022-10-18T05:17:22.615Z,91.85
2022-10-18T05:23:42.600Z,91.89
2022-10-18T05:30:05.890Z,92.04
2022-10-18T05:36:25.668Z,92.26
2022-10-18T05:42:48.568Z,92.31
2022-10-18T05:49:08.589Z,92.19
2022-10-18T05:55:31.581Z,91.96
2022-10-18T06:01:51.584Z,92.2
2022-10-18T06:08:14.567Z,92.4
2022-10-18T06:14:34.614Z,92.33
2022-10-18T06:20:57.638Z,92.38
2022-10-18T06:27:17.569Z,92.26
2022-10-18T06:33:40.646Z,92.33
2022-10-18T06:40:00.597Z,92.28
2022-10-18T06:46:23.599Z,92.08
2022-10-18T06:52:43.612Z,92.15
2022-10-18T06:59:06.601Z,91.84
2022-10-18T07:05:26.611Z,91.9
2022-10-18T07:11:49.631Z,92.07
2022-10-18T07:18:09.581Z,92.07
2022-10-18T07:30:52.614Z,91.6
2022-10-18T07:37:15.586Z,91.33
2022-10-18T07:43:35.594Z,91.07
2022-10-18T07:49:58.597Z,90.4
2022-10-18T07:56:18.616Z,90.64
2022-10-18T08:02:41.588Z,90.84
2022-10-18T08:09:02.127Z,91.07
2022-10-18T08:15:24.567Z,91.03
2022-10-18T08:21:44.580Z,90.73
2022-10-18T08:28:07.607Z,90.81
2022-10-18T08:34:27.675Z,89.82
2022-10-18T08:40:50.761Z,89.96
2022-10-18T08:47:10.627Z,89.74
2022-10-18T09:03:21.638Z,89.78
2022-10-18T09:09:41.584Z,90.37
2022-10-18T09:16:04.596Z,90.28
2022-10-18T09:22:24.628Z,90.62
2022-10-18T09:28:47.670Z,90.42
2022-10-18T09:35:07.592Z,90.1
2022-10-18T09:41:30.610Z,90.01
2022-10-18T09:47:50.625Z,89.98
2022-10-18T09:54:13.608Z,89.68
2022-10-18T10:00:33.635Z,89.32
2022-10-18T10:06:56.605Z,89.63
2022-10-18T10:13:16.601Z,88.91
2022-10-18T10:19:39.613Z,89.21
2022-10-18T10:25:59.573Z,89.5
2022-10-18T10:32:22.630Z,88.85
2022-10-18T10:38:42.631Z,89.51
2022-10-18T10:45:05.579Z,88.78
2022-10-18T10:51:25.585Z,88.41
2022-10-18T10:57:48.611Z,87.71
2022-10-18T11:04:08.622Z,88.41
2022-10-18T11:10:31.639Z,88.95
2022-10-18T11:16:51.718Z,88.21
2022-10-18T11:23:14.605Z,88.05
2022-10-18T11:29:34.584Z,88.4
2022-10-18T11:36:01.537Z,88.08
2022-10-18T11:42:17.655Z,87.74
2022-10-18T11:48:40.735Z,88.62
2022-10-18T11:55:00.667Z,86.78
2022-10-18T12:01:24.743Z,87.86
2022-10-18T12:07:43.583Z,86.21
2022-10-18T12:14:06.637Z,85.07
2022-10-18T12:20:26.604Z,84.02
2022-10-18T12:26:49.623Z,83.35
2022-10-18T12:33:27.037Z,83.5
2022-10-18T12:39:38.770Z,83.62
2022-10-18T12:45:52.589Z,84.85
2022-10-18T12:52:15.628Z,85.17
2022-10-18T12:58:35.574Z,84.7
2022-10-18T13:11:18.643Z,84.09
2022-10-18T13:17:41.602Z,82.15
2022-10-18T13:24:01.598Z,82.93
2022-10-18T13:30:24.607Z,80.79
2022-10-18T13:36:44.573Z,78.75
2022-10-18T13:43:07.599Z,78.69
2022-10-18T13:49:27.601Z,80.28
2022-10-18T13:55:51.997Z,76.36
2022-10-18T14:02:10.591Z,75.06
2022-10-18T14:25:17.590Z,75.11
2022-10-18T14:31:40.574Z,77.04
2022-10-18T14:38:00.607Z,78.84
2022-10-18T14:44:23.594Z,79.75
2022-10-18T14:50:43.575Z,80.28
2022-10-18T14:57:06.631Z,79.72
2022-10-18T15:03:26.593Z,79.75
2022-10-18T15:09:49.609Z,80.51
2022-10-18T15:16:09.562Z,80.01
2022-10-18T15:22:33.107Z,78.65
2022-10-18T15:28:52.705Z,78.35
2022-10-18T15:35:15.570Z,77.15
2022-10-18T15:41:35.614Z,77.77
2022-10-18T15:47:58.578Z,79.54
2022-10-18T15:54:18.584Z,80.45
2022-10-18T16:00:41.618Z,81.12
2022-10-18T16:07:01.563Z,81.12
2022-10-18T16:13:24.583Z,80.81
2022-10-18T16:19:45.056Z,80.92
2022-10-18T16:26:07.592Z,80.67
2022-10-18T16:32:27.615Z,81.26
2022-10-18T16:38:50.648Z,81.04
2022-10-18T16:45:10.588Z,81.94
2022-10-18T16:51:33.704Z,82.23
2022-10-18T16:57:53.724Z,82.63
2022-10-18T17:04:16.620Z,83.01
2022-10-18T17:10:36.621Z,83.25
2022-10-18T17:16:59.616Z,83.5
2022-10-18T17:23:19.566Z,84.85
2022-10-18T17:29:42.600Z,85.27
2022-10-18T17:36:02.729Z,85.93
2022-10-18T17:42:25.698Z,86.22
2022-10-18T17:48:45.726Z,86.18
2022-10-18T17:55:08.612Z,86.21
2022-10-18T18:01:28.787Z,86.41
2022-10-18T18:07:51.572Z,86.55
2022-10-18T18:14:11.606Z,86.1
2022-10-18T18:20:34.677Z,86.48
2022-10-18T18:26:54.560Z,86.51
2022-10-18T18:33:17.659Z,86.79
2022-10-18T18:39:37.606Z,86.96
2022-10-18T18:46:00.631Z,86.82
2022-10-18T18:52:20.677Z,87.23
2022-10-18T18:58:43.583Z,86.81
2022-10-18T19:05:03.616Z,87.23
2022-10-18T19:11:26.703Z,86.82
2022-10-18T19:17:46.580Z,86.72
2022-10-18T19:33:59.510Z,87.18
2022-10-18T19:40:16.566Z,87.58
2022-10-18T19:46:39.603Z,87.17
2022-10-18T19:52:59.619Z,86.77
2022-10-18T19:59:22.577Z,86.99
2022-10-18T20:05:42.594Z,87.09
2022-10-18T20:12:05.604Z,87.85
2022-10-18T20:18:25.589Z,87.85
2022-10-18T20:24:48.586Z,87.26
2022-10-18T20:31:08.600Z,87.47
2022-10-18T20:37:32.055Z,87.3
2022-10-18T20:43:51.580Z,87.88
2022-10-18T20:50:14.692Z,88.7
2022-10-18T20:56:34.570Z,89.22
2022-10-18T21:02:57.671Z,89.41
2022-10-18T21:09:17.671Z,89.33
2022-10-18T21:15:40.575Z,89.8
2022-10-18T21:22:00.639Z,89.96
2022-10-18T21:28:23.611Z,90.12
2022-10-18T21:34:43.587Z,90.09
2022-10-18T21:41:06.593Z,89.99
2022-10-18T21:47:26.589Z,90.17
2022-10-18T21:53:49.586Z,90.08
2022-10-18T22:00:09.587Z,89.98
2022-10-18T22:23:06.597Z,90.22
2022-10-18T22:29:26.554Z,89.64
2022-10-18T22:35:49.595Z,89.08
2022-10-18T22:42:09.625Z,89.23
2022-10-18T22:48:32.594Z,88.86
2022-10-18T22:54:52.581Z,88.93
2022-10-18T23:01:15.659Z,89.35
2022-10-18T23:07:35.563Z,89.59
2022-10-18T23:13:58.558Z,89.4
2022-10-18T23:20:18.610Z,89.35
2022-10-18T23:26:41.612Z,89.61
2022-10-18T23:33:01.617Z,89.95
2022-10-18T23:39:24.620Z,90.18
2022-10-18T23:52:07.586Z,90.86
2022-10-18T23:58:27.700Z,91.19
